createdAt,value
2023-04-29T00:02:00.693Z,18.33
2023-04-29T00:03:30.520Z,19.09
2023-04-29T00:05:05.192Z,18.72
2023-04-29T00:06:32.155Z,19.48
2023-04-29T00:08:08.024Z,19.26
2023-04-29T00:09:38.789Z,18.99
2023-04-29T00:11:11.857Z,18.42
2023-04-29T00:12:45.404Z,18.60
2023-04-29T00:14:14.805Z,18.81
2023-04-29T00:16:03.791Z,18.07
2023-04-29T00:17:28.145Z,18.50
2023-04-29T00:18:50.003Z,18.57
2023-04-29T00:20:25.491Z,17.53
2023-04-29T00:21:56.495Z,18.77
2023-04-29T00:23:21.149Z,18.06
2023-04-29T00:24:52.728Z,18.90
2023-04-29T00:26:18.821Z,17.46
2023-04-29T00:27:54.017Z,18.18
2023-04-29T00:29:27.705Z,17.55
2023-04-29T00:31:13.051Z,18.07
2023-04-29T00:32:54.103Z,17.92
2023-04-29T00:34:20.826Z,17.64
2023-04-29T00:35:56.505Z,17.13
2023-04-29T00:37:30.281Z,18.22
2023-04-29T00:39:15.575Z,17.72
2023-04-29T00:40:52.078Z,17.78
2023-04-29T00:42:25.792Z,16.61
2023-04-29T00:44:10.674Z,16.42
2023-04-29T00:45:33.097Z,16.89
2023-04-29T00:47:13.533Z,16.66
2023-04-29T00:48:49.604Z,16.41
2023-04-29T00:50:26.021Z,17.33
2023-04-29T00:51:52.431Z,16.53
2023-04-29T00:53:33.568Z,16.33
2023-04-29T00:54:55.599Z,16.23
2023-04-29T00:56:30.893Z,16.85
2023-04-29T00:58:02.580Z,16.21
2023-04-29T00:59:36.199Z,16.33
2023-04-29T01:01:11.777Z,15.91
2023-04-29T01:02:49.584Z,16.04
2023-04-29T01:04:23.089Z,15.73
2023-04-29T01:06:04.348Z,15.94
2023-04-29T01:07:42.802Z,16.78
2023-04-29T01:09:09.733Z,16.49
2023-04-29T01:10:43.206Z,15.92
2023-04-29T01:12:06.763Z,15.68
2023-04-29T01:13:40.449Z,16.11
2023-04-29T01:15:11.745Z,16.36
2023-04-29T01:16:45.469Z,16.01
2023-04-29T01:18:21.192Z,15.49
2023-04-29T01:19:55.945Z,15.11
2023-04-29T01:21:25.895Z,15.46
2023-04-29T01:22:59.219Z,14.94
2023-04-29T01:24:48.500Z,15.41
2023-04-29T01:26:22.415Z,14.82
2023-04-29T01:28:01.175Z,14.71
2023-04-29T01:29:35.341Z,14.95
2023-04-29T01:31:09.843Z,14.74
2023-04-29T01:32:43.427Z,14.48
2023-04-29T01:34:29.112Z,14.47
2023-04-29T01:36:04.631Z,14.22
2023-04-29T01:37:37.341Z,13.73
2023-04-29T01:39:10.997Z,14.44
2023-04-29T01:40:58.634Z,13.84
2023-04-29T01:42:40.656Z,13.85
2023-04-29T01:44:30.014Z,13.55
2023-04-29T01:46:05.912Z,13.47
2023-04-29T01:47:41.749Z,13.83
2023-04-29T01:49:22.511Z,14.27
2023-04-29T01:50:56.275Z,13.92
2023-04-29T01:52:20.604Z,13.48
2023-04-29T01:54:14.420Z,14.53
2023-04-29T01:55:37.155Z,13.55
2023-04-29T01:57:49.992Z,14.15
2023-04-29T01:59:47.115Z,13.68
2023-04-29T02:01:56.548Z,13.01
2023-04-29T02:03:42.136Z,13.57
2023-04-29T02:05:09.245Z,13.29
2023-04-29T02:06:34.392Z,14.11
2023-04-29T02:08:13.718Z,13.03
2023-04-29T02:09:38.633Z,14.39
2023-04-29T02:11:07.479Z,13.53
2023-04-29T02:12:32.069Z,13.26
2023-04-29T02:13:54.751Z,14.06
2023-04-29T02:15:19.128Z,14.35
2023-04-29T02:16:41.421Z,14.02
2023-04-29T02:18:05.564Z,13.16
2023-04-29T02:19:27.558Z,14.35
2023-04-29T02:20:54.229Z,13.99
2023-04-29T02:22:28.122Z,13.81
2023-04-29T02:23:51.821Z,13.05
2023-04-29T02:25:17.664Z,13.88
2023-04-29T02:26:50.857Z,14.10
2023-04-29T02:28:27.770Z,13.26
2023-04-29T02:29:49.421Z,13.27
2023-04-29T02:31:22.901Z,13.92
2023-04-29T02:32:51.890Z,13.64
2023-04-29T02:34:20.927Z,14.03
2023-04-29T02:35:54.385Z,14.31
2023-04-29T02:37:30.239Z,13.70
2023-04-29T02:38:54.012Z,13.94
2023-04-29T02:40:29.723Z,13.88
2023-04-29T02:41:53.387Z,13.41
2023-04-29T02:43:14.973Z,14.18
2023-04-29T02:45:00.175Z,14.29
2023-04-29T02:46:41.019Z,13.61
2023-04-29T02:48:10.216Z,14.12
2023-04-29T02:49:55.725Z,13.79
2023-04-29T02:51:31.824Z,13.71
2023-04-29T02:52:53.748Z,13.46
2023-04-29T02:54:27.489Z,13.82
2023-04-29T02:56:03.149Z,13.65
2023-04-29T02:57:29.760Z,13.96
2023-04-29T02:58:58.331Z,13.75
2023-04-29T03:00:22.629Z,13.76
2023-04-29T03:01:56.050Z,14.36
2023-04-29T03:03:20.481Z,13.51
2023-04-29T03:05:01.552Z,14.26
2023-04-29T03:06:26.266Z,14.03
2023-04-29T03:08:02.153Z,13.14
2023-04-29T03:09:48.555Z,14.09
2023-04-29T03:11:10.261Z,14.30
2023-04-29T03:12:34.760Z,14.51
2023-04-29T03:13:58.890Z,14.33
2023-04-29T03:15:25.151Z,14.47
2023-04-29T03:17:14.003Z,14.62
2023-04-29T03:18:36.392Z,14.65
2023-04-29T03:19:59.895Z,14.55
2023-04-29T03:21:29.482Z,14.05
2023-04-29T03:22:53.734Z,14.80
2023-04-29T03:24:18.769Z,14.25
2023-04-29T03:25:41.643Z,14.07
2023-04-29T03:27:06.237Z,14.56
2023-04-29T03:28:30.563Z,14.37
2023-04-29T03:29:52.189Z,13.98
2023-04-29T03:31:23.328Z,14.17
2023-04-29T03:32:50.263Z,14.18
2023-04-29T03:34:14.686Z,14.15
2023-04-29T03:35:48.456Z,13.94
2023-04-29T03:37:27.156Z,13.61
2023-04-29T03:39:06.642Z,13.93
2023-04-29T03:40:33.680Z,13.65
2023-04-29T03:41:59.634Z,14.10
2023-04-29T03:43:28.963Z,13.08
2023-04-29T03:45:02.778Z,13.88
2023-04-29T03:46:36.316Z,13.80
2023-04-29T03:48:09.806Z,13.38
2023-04-29T03:49:31.986Z,13.83
2023-04-29T03:51:01.393Z,13.76
2023-04-29T03:52:31.356Z,13.19
2023-04-29T03:54:00.731Z,13.53
2023-04-29T03:55:32.033Z,12.94
2023-04-29T03:57:14.277Z,13.08
2023-04-29T03:58:47.695Z,13.35
2023-04-29T04:00:28.724Z,13.83
2023-04-29T04:01:58.536Z,13.33
2023-04-29T04:03:28.429Z,14.35
2023-04-29T04:04:59.077Z,14.75
2023-04-29T04:06:23.309Z,14.02
2023-04-29T04:07:47.129Z,14.20
2023-04-29T04:09:29.791Z,14.34
2023-04-29T04:11:15.175Z,14.13
2023-04-29T04:12:51.504Z,14.08
2023-04-29T04:14:24.827Z,15.00
2023-04-29T04:15:53.419Z,13.71
2023-04-29T04:17:17.259Z,13.97
2023-04-29T04:18:53.414Z,14.37
2023-04-29T04:20:19.564Z,14.66
2023-04-29T04:21:54.001Z,13.87
2023-04-29T04:23:29.731Z,14.03
2023-04-29T04:24:51.485Z,14.09
2023-04-29T04:26:34.499Z,13.47
2023-04-29T04:28:12.846Z,13.59
2023-04-29T04:30:28.416Z,13.51
2023-04-29T04:32:02.512Z,13.81
2023-04-29T04:33:37.308Z,14.42
2023-04-29T04:35:18.775Z,13.36
2023-04-29T04:37:04.753Z,14.41
2023-04-29T04:38:38.299Z,13.34
2023-04-29T04:40:18.332Z,13.91
2023-04-29T04:42:07.967Z,13.40
2023-04-29T04:43:30.548Z,12.41
2023-04-29T04:45:11.245Z,12.63
2023-04-29T04:46:50.558Z,13.68
2023-04-29T04:48:44.994Z,12.41
2023-04-29T04:50:30.542Z,13.88
2023-04-29T04:52:04.068Z,12.96
2023-04-29T04:53:39.818Z,13.60
2023-04-29T04:55:24.503Z,13.22
2023-04-29T04:56:48.529Z,13.89
2023-04-29T04:58:33.953Z,13.55
2023-04-29T05:00:07.106Z,14.14
2023-04-29T05:01:40.710Z,12.82
2023-04-29T05:03:16.420Z,13.78
2023-04-29T05:04:49.732Z,12.85
2023-04-29T05:06:24.640Z,13.40
2023-04-29T05:07:48.929Z,12.67
2023-04-29T05:09:14.063Z,13.38
2023-04-29T05:10:38.360Z,12.87
2023-04-29T05:12:12.496Z,12.58
2023-04-29T05:13:52.986Z,12.98
2023-04-29T05:15:19.059Z,12.89
2023-04-29T05:16:58.904Z,13.29
2023-04-29T05:18:47.338Z,12.98
2023-04-29T05:20:29.891Z,13.14
2023-04-29T05:21:52.133Z,13.11
2023-04-29T05:23:13.810Z,12.89
2023-04-29T05:24:42.926Z,13.81
2023-04-29T05:26:12.195Z,13.36
2023-04-29T05:27:34.429Z,13.23
2023-04-29T05:29:08.994Z,13.67
2023-04-29T05:30:39.608Z,13.23
2023-04-29T05:32:11.519Z,12.92
2023-04-29T05:33:57.028Z,13.23
2023-04-29T05:35:19.928Z,13.24
2023-04-29T05:36:55.320Z,12.66
2023-04-29T05:38:37.930Z,13.31
2023-04-29T05:40:12.966Z,12.90
2023-04-29T05:41:49.824Z,12.76
2023-04-29T05:43:17.953Z,12.93
2023-04-29T05:44:42.058Z,12.62
2023-04-29T05:46:22.947Z,12.38
2023-04-29T05:47:50.220Z,13.21
2023-04-29T05:49:30.552Z,12.94
2023-04-29T05:50:54.635Z,13.55
2023-04-29T05:52:28.092Z,13.25
2023-04-29T05:54:05.514Z,12.11
2023-04-29T05:55:52.316Z,13.46
2023-04-29T05:57:34.702Z,12.94
2023-04-29T05:59:06.340Z,13.81
2023-04-29T06:00:53.453Z,13.44
2023-04-29T06:02:30.951Z,12.90
2023-04-29T06:04:15.773Z,13.07
2023-04-29T06:06:11.290Z,13.35
2023-04-29T06:08:41.744Z,13.69
2023-04-29T06:10:31.834Z,12.29
2023-04-29T06:11:58.950Z,12.46
2023-04-29T06:13:34.493Z,12.81
2023-04-29T06:14:58.343Z,12.84
2023-04-29T06:16:20.332Z,13.51
2023-04-29T06:17:50.101Z,13.09
2023-04-29T06:19:21.280Z,12.44
2023-04-29T06:20:55.289Z,13.11
2023-04-29T06:22:30.826Z,13.10
2023-04-29T06:24:01.791Z,12.48
2023-04-29T06:25:34.259Z,12.93
2023-04-29T06:27:18.856Z,13.18
2023-04-29T06:29:04.279Z,13.48
2023-04-29T06:30:34.349Z,12.56
2023-04-29T06:32:19.100Z,13.32
2023-04-29T06:33:55.451Z,13.91
2023-04-29T06:35:28.870Z,13.21
2023-04-29T06:37:52.810Z,13.69
2023-04-29T06:39:32.664Z,14.15
2023-04-29T06:41:39.142Z,14.09
2023-04-29T06:43:36.881Z,12.95
2023-04-29T06:45:43.061Z,14.04
2023-04-29T06:47:25.338Z,13.76
2023-04-29T06:49:07.153Z,13.76
2023-04-29T06:50:44.947Z,13.63
2023-04-29T06:52:06.947Z,14.15
2023-04-29T06:53:40.806Z,13.34
2023-04-29T06:55:16.425Z,14.06
2023-04-29T06:56:46.041Z,14.73
2023-04-29T06:58:19.859Z,15.29
2023-04-29T07:00:05.349Z,13.99
2023-04-29T07:01:44.441Z,14.07
2023-04-29T07:03:21.041Z,14.67
2023-04-29T07:05:06.440Z,15.31
2023-04-29T07:06:51.707Z,16.53
2023-04-29T07:08:45.608Z,15.92
2023-04-29T07:10:19.071Z,16.24
2023-04-29T07:12:06.543Z,14.58
2023-04-29T07:13:38.206Z,14.18
2023-04-29T07:15:13.912Z,14.49
2023-04-29T07:16:58.956Z,14.67
2023-04-29T07:18:25.818Z,14.68
2023-04-29T07:19:47.735Z,14.23
2023-04-29T07:21:16.845Z,14.97
2023-04-29T07:22:52.673Z,15.12
2023-04-29T07:24:29.822Z,15.07
2023-04-29T07:25:52.312Z,14.47
2023-04-29T07:27:33.499Z,15.29
2023-04-29T07:28:57.427Z,15.68
2023-04-29T07:30:19.675Z,15.94
2023-04-29T07:31:44.107Z,15.81
2023-04-29T07:33:07.418Z,16.05
2023-04-29T07:34:41.215Z,15.08
2023-04-29T07:36:14.662Z,15.10
2023-04-29T07:37:48.365Z,14.95
2023-04-29T07:39:12.299Z,15.83
2023-04-29T07:40:38.443Z,15.38
2023-04-29T07:42:12.101Z,14.40
2023-04-29T07:43:36.357Z,14.83
2023-04-29T07:45:02.197Z,14.96
2023-04-29T07:46:26.103Z,14.97
2023-04-29T07:48:01.656Z,14.89
2023-04-29T07:49:36.086Z,15.84
2023-04-29T07:51:05.022Z,14.53
2023-04-29T07:52:39.036Z,14.42
2023-04-29T07:54:13.765Z,14.50
2023-04-29T07:55:40.156Z,14.89
2023-04-29T07:57:15.427Z,14.32
2023-04-29T07:58:44.913Z,13.36
2023-04-29T08:00:15.992Z,13.56
2023-04-29T08:01:49.427Z,13.61
2023-04-29T08:03:25.593Z,13.63
2023-04-29T08:05:01.501Z,13.19
2023-04-29T08:06:35.870Z,14.72
2023-04-29T08:08:11.455Z,14.45
2023-04-29T08:09:37.385Z,13.40
2023-04-29T08:11:03.468Z,14.23
2023-04-29T08:12:27.719Z,14.12
2023-04-29T08:14:03.458Z,14.41
2023-04-29T08:15:33.095Z,13.80
2023-04-29T08:17:14.023Z,13.98
2023-04-29T08:20:43.800Z,14.09
2023-04-29T08:22:08.008Z,14.15
2023-04-29T08:23:34.386Z,13.71
2023-04-29T08:25:05.385Z,13.94
2023-04-29T08:26:39.526Z,13.95
2023-04-29T08:28:10.837Z,14.16
2023-04-29T08:29:35.009Z,13.34
2023-04-29T08:31:10.565Z,13.91
2023-04-29T08:32:44.500Z,14.72
2023-04-29T08:34:22.808Z,14.46
2023-04-29T08:36:03.786Z,14.63
2023-04-29T08:37:45.022Z,13.87
2023-04-29T08:39:07.237Z,15.48
2023-04-29T08:40:39.158Z,14.62
2023-04-29T08:42:03.252Z,14.55
2023-04-29T08:43:25.490Z,14.44
2023-04-29T08:44:50.127Z,14.23
2023-04-29T08:46:21.462Z,13.05
2023-04-29T08:48:08.244Z,14.30
2023-04-29T08:49:38.124Z,12.93
2023-04-29T08:51:09.686Z,14.51
2023-04-29T08:52:33.853Z,14.20
2023-04-29T08:53:55.392Z,14.54
2023-04-29T08:55:24.846Z,14.92
2023-04-29T08:56:54.132Z,13.86
2023-04-29T08:58:16.472Z,13.76
2023-04-29T08:59:41.317Z,14.53
2023-04-29T09:01:15.006Z,14.72
2023-04-29T09:02:39.488Z,14.56
2023-04-29T09:04:01.546Z,13.98
2023-04-29T09:05:35.592Z,15.06
2023-04-29T09:07:09.006Z,14.34
2023-04-29T09:08:30.963Z,15.17
2023-04-29T09:09:53.623Z,15.23
2023-04-29T09:11:17.719Z,14.38
2023-04-29T09:12:44.601Z,14.49
2023-04-29T09:14:09.687Z,15.41
2023-04-29T09:15:33.982Z,15.31
2023-04-29T09:16:58.109Z,15.76
2023-04-29T09:18:28.698Z,14.17
2023-04-29T09:20:05.771Z,15.69
2023-04-29T09:21:39.880Z,14.85
2023-04-29T09:23:19.743Z,15.20
2023-04-29T09:24:43.692Z,16.08
2023-04-29T09:26:17.409Z,15.92
2023-04-29T09:27:52.300Z,14.91
2023-04-29T09:29:16.144Z,15.62
2023-04-29T09:30:45.968Z,15.65
2023-04-29T09:32:07.845Z,16.10
2023-04-29T09:33:31.480Z,15.36
2023-04-29T09:34:55.459Z,15.82
2023-04-29T09:36:17.621Z,15.23
2023-04-29T09:37:47.114Z,14.75
2023-04-29T09:39:11.888Z,14.96
2023-04-29T09:40:46.518Z,15.71
2023-04-29T09:42:15.097Z,15.36
2023-04-29T09:43:37.673Z,14.86
2023-04-29T09:45:06.461Z,14.33
2023-04-29T09:46:28.788Z,14.51
2023-04-29T09:47:52.797Z,13.65
2023-04-29T09:49:14.547Z,14.19
2023-04-29T09:50:50.941Z,14.87
2023-04-29T09:52:12.985Z,13.45
2023-04-29T09:53:38.080Z,13.53
2023-04-29T09:55:01.742Z,13.92
2023-04-29T09:56:34.925Z,14.04
2023-04-29T09:57:58.318Z,13.53
2023-04-29T09:59:20.121Z,12.50
2023-04-29T10:00:41.953Z,13.03
2023-04-29T10:02:18.444Z,12.99
2023-04-29T10:03:40.734Z,12.91
2023-04-29T10:05:02.468Z,13.25
2023-04-29T10:06:24.635Z,13.21
2023-04-29T10:07:46.544Z,12.56
2023-04-29T10:09:19.874Z,12.79
2023-04-29T10:10:41.778Z,12.88
2023-04-29T10:12:03.188Z,13.07
2023-04-29T10:13:27.512Z,13.16
2023-04-29T10:14:51.961Z,12.38
2023-04-29T10:16:13.697Z,12.64
2023-04-29T10:17:35.501Z,13.17
2023-04-29T10:19:08.917Z,12.94
2023-04-29T10:20:54.115Z,12.69
2023-04-29T10:22:27.824Z,12.68
2023-04-29T10:23:49.497Z,11.25
2023-04-29T10:25:12.100Z,12.03
2023-04-29T10:26:38.534Z,11.79
2023-04-29T10:28:07.836Z,11.28
2023-04-29T10:29:41.664Z,10.84
2023-04-29T10:31:17.521Z,10.39
2023-04-29T10:32:50.962Z,11.32
2023-04-29T10:34:13.937Z,10.05
2023-04-29T10:35:43.588Z,8.68
2023-04-29T10:37:05.400Z,7.43
2023-04-29T10:38:35.529Z,7.54
2023-04-29T10:40:04.552Z,7.75
2023-04-29T10:41:28.782Z,7.38
2023-04-29T10:42:52.882Z,6.98
2023-04-29T10:44:28.944Z,6.93
2023-04-29T10:45:52.718Z,7.05
2023-04-29T10:47:35.961Z,7.10
2023-04-29T10:48:59.695Z,7.21
2023-04-29T10:50:33.856Z,7.06
2023-04-29T10:51:58.090Z,7.31
2023-04-29T10:53:19.992Z,7.37
2023-04-29T10:54:48.833Z,7.16
2023-04-29T10:56:12.482Z,7.36
2023-04-29T10:57:36.722Z,7.20
2023-04-29T10:58:58.621Z,6.99
2023-04-29T11:00:39.692Z,7.36
2023-04-29T11:02:01.257Z,7.34
2023-04-29T11:03:35.332Z,6.75
2023-04-29T11:05:09.392Z,7.04
2023-04-29T11:06:54.516Z,7.19
2023-04-29T11:08:39.715Z,7.06
2023-04-29T11:10:03.535Z,7.57
2023-04-29T11:11:28.704Z,8.09
2023-04-29T11:12:52.786Z,8.18
2023-04-29T11:14:22.161Z,8.00
2023-04-29T11:15:44.154Z,8.05
2023-04-29T11:17:07.938Z,7.83
2023-04-29T11:18:41.758Z,8.07
2023-04-29T11:20:03.263Z,7.55
2023-04-29T11:21:25.214Z,7.77
2023-04-29T11:22:49.364Z,8.37
2023-04-29T11:24:18.269Z,8.50
2023-04-29T11:25:51.818Z,8.70
2023-04-29T11:27:25.831Z,8.09
2023-04-29T11:29:01.226Z,8.53
2023-04-29T11:30:42.390Z,7.88
2023-04-29T11:32:04.109Z,8.11
2023-04-29T11:33:36.017Z,8.25
2023-04-29T11:34:57.771Z,8.14
2023-04-29T11:36:26.957Z,8.53
2023-04-29T11:37:53.073Z,8.54
2023-04-29T11:39:15.179Z,8.53
2023-04-29T11:40:39.503Z,8.56
2023-04-29T11:42:32.976Z,9.69
2023-04-29T11:44:09.529Z,9.52
2023-04-29T11:45:39.102Z,9.67
2023-04-29T11:47:15.005Z,9.62
2023-04-29T11:49:00.145Z,9.86
2023-04-29T11:50:34.055Z,10.27
2023-04-29T11:52:03.081Z,9.79
2023-04-29T11:53:25.191Z,10.29
2023-04-29T11:54:46.629Z,10.15
2023-04-29T11:56:18.495Z,9.75
2023-04-29T11:57:52.473Z,10.18
2023-04-29T11:59:26.070Z,9.27
2023-04-29T12:00:50.083Z,10.13
2023-04-29T12:02:16.153Z,10.24
2023-04-29T12:03:52.220Z,9.56
2023-04-29T12:05:17.565Z,10.46
2023-04-29T12:06:51.644Z,10.45
2023-04-29T12:08:14.182Z,10.79
2023-04-29T12:09:45.554Z,10.78
2023-04-29T12:11:07.519Z,11.23
2023-04-29T12:12:37.060Z,11.45
2023-04-29T12:14:06.388Z,11.24
2023-04-29T12:15:40.267Z,11.70
2023-04-29T12:17:13.499Z,11.91
2023-04-29T12:18:49.318Z,12.67
2023-04-29T12:20:11.246Z,12.02
2023-04-29T12:21:47.709Z,12.01
2023-04-29T12:23:18.982Z,12.09
2023-04-29T12:24:50.833Z,10.91
2023-04-29T12:26:32.865Z,11.28
2023-04-29T12:27:57.260Z,11.37
2023-04-29T12:29:32.774Z,9.89
2023-04-29T12:30:56.754Z,10.49
2023-04-29T12:32:20.909Z,10.09
2023-04-29T12:33:50.399Z,10.04
2023-04-29T12:35:14.649Z,10.55
2023-04-29T12:36:48.265Z,10.92
2023-04-29T12:38:33.736Z,10.99
2023-04-29T12:40:07.042Z,10.92
2023-04-29T12:41:42.915Z,11.75
2023-04-29T12:43:04.697Z,11.79
2023-04-29T12:44:36.695Z,11.64
2023-04-29T12:46:09.982Z,11.67
2023-04-29T12:47:34.451Z,11.39
2023-04-29T12:49:04.101Z,11.32
2023-04-29T12:50:37.918Z,11.85
2023-04-29T12:52:03.838Z,12.35
2023-04-29T12:53:28.111Z,11.61
2023-04-29T12:54:49.677Z,11.20
2023-04-29T12:56:13.752Z,11.38
2023-04-29T12:57:35.577Z,11.13
2023-04-29T12:58:57.984Z,10.69
2023-04-29T13:00:20.543Z,11.20
2023-04-29T13:01:45.006Z,11.37
2023-04-29T13:03:07.901Z,11.32
2023-04-29T13:04:30.046Z,11.31
2023-04-29T13:06:12.629Z,10.97
2023-04-29T13:08:06.265Z,11.85
2023-04-29T13:09:38.185Z,11.64
2023-04-29T13:11:00.003Z,11.88
2023-04-29T13:12:21.652Z,11.32
2023-04-29T13:13:43.634Z,11.59
2023-04-29T13:15:05.368Z,11.27
2023-04-29T13:16:29.808Z,11.83
2023-04-29T13:17:58.930Z,11.71
2023-04-29T13:19:48.134Z,11.57
2023-04-29T13:21:12.882Z,11.34
2023-04-29T13:22:35.003Z,11.38
2023-04-29T13:23:56.538Z,11.52
2023-04-29T13:25:17.881Z,11.54
2023-04-29T13:26:49.676Z,12.38
2023-04-29T13:28:20.268Z,11.22
2023-04-29T13:29:42.046Z,11.55
2023-04-29T13:31:05.504Z,11.72
2023-04-29T13:32:38.107Z,11.82
2023-04-29T13:34:05.175Z,12.32
2023-04-29T13:35:29.892Z,12.72
2023-04-29T13:36:51.678Z,12.71
2023-04-29T13:38:15.973Z,11.57
2023-04-29T13:39:38.361Z,12.21
2023-04-29T13:40:59.837Z,11.93
2023-04-29T13:42:26.958Z,13.30
2023-04-29T13:43:50.790Z,12.25
2023-04-29T13:45:22.546Z,12.35
2023-04-29T13:46:56.296Z,12.68
2023-04-29T13:49:03.423Z,12.61
2023-04-29T13:51:09.622Z,12.11
2023-04-29T13:55:38.367Z,13.76
2023-04-29T13:59:52.198Z,13.49
2023-04-29T14:01:54.231Z,13.42
2023-04-29T14:04:41.389Z,12.17
2023-04-29T14:06:07.833Z,13.41
2023-04-29T14:07:31.834Z,13.21
2023-04-29T14:09:05.013Z,11.73
2023-04-29T14:10:40.953Z,11.99
2023-04-29T14:12:04.803Z,11.84
2023-04-29T14:13:29.486Z,11.47
2023-04-29T14:15:03.172Z,11.09
2023-04-29T14:16:33.048Z,11.82
2023-04-29T14:17:59.069Z,12.95
2023-04-29T14:19:32.868Z,11.82
2023-04-29T14:20:57.596Z,12.33
2023-04-29T14:22:31.582Z,12.08
2023-04-29T14:24:06.856Z,12.40
2023-04-29T14:25:29.139Z,12.23
2023-04-29T14:26:59.033Z,12.99
2023-04-29T14:28:22.658Z,12.80
2023-04-29T14:29:52.210Z,12.66
2023-04-29T14:31:26.765Z,12.54
2023-04-29T14:33:00.239Z,11.91
2023-04-29T14:34:41.160Z,11.00
2023-04-29T14:36:17.081Z,12.48
2023-04-29T14:37:41.613Z,12.65
2023-04-29T14:39:22.595Z,11.88
2023-04-29T14:41:07.388Z,10.42
2023-04-29T14:42:42.682Z,10.42
2023-04-29T14:44:11.418Z,10.84
2023-04-29T14:45:45.092Z,10.50
2023-04-29T14:47:21.204Z,10.10
2023-04-29T14:48:57.081Z,10.31
2023-04-29T14:50:30.997Z,9.78
2023-04-29T14:52:06.419Z,10.56
2023-04-29T14:53:28.732Z,10.48
2023-04-29T14:55:02.059Z,10.96
2023-04-29T14:56:27.459Z,10.66
2023-04-29T14:58:12.377Z,9.83
2023-04-29T14:59:34.761Z,9.81
2023-04-29T15:00:58.877Z,9.51
2023-04-29T15:02:34.688Z,9.28
2023-04-29T15:04:19.530Z,9.73
2023-04-29T15:06:05.076Z,9.51
2023-04-29T15:07:36.838Z,10.60
2023-04-29T15:09:05.426Z,11.12
2023-04-29T15:10:27.555Z,10.85
2023-04-29T15:11:51.629Z,11.74
2023-04-29T15:13:15.401Z,10.56
2023-04-29T15:15:04.692Z,11.21
2023-04-29T15:16:29.328Z,11.14
2023-04-29T15:18:14.635Z,11.65
2023-04-29T15:19:44.281Z,11.47
2023-04-29T15:21:06.236Z,10.57
2023-04-29T15:22:32.832Z,11.89
2023-04-29T15:24:08.553Z,13.06
2023-04-29T15:25:36.351Z,13.31
2023-04-29T15:27:12.994Z,11.91
2023-04-29T15:28:43.319Z,11.22
2023-04-29T15:30:05.339Z,11.39
2023-04-29T15:31:39.458Z,11.15
2023-04-29T15:33:12.777Z,11.68
2023-04-29T15:34:36.733Z,11.79
2023-04-29T15:36:18.996Z,11.70
2023-04-29T15:38:02.141Z,12.72
2023-04-29T15:39:29.241Z,12.84
2023-04-29T15:41:02.700Z,11.90
2023-04-29T15:42:36.390Z,12.40
2023-04-29T15:44:02.141Z,13.03
2023-04-29T15:45:26.526Z,12.07
2023-04-29T15:46:48.588Z,12.28
2023-04-29T15:48:21.439Z,12.55
2023-04-29T15:49:56.373Z,12.14
2023-04-29T15:51:20.995Z,13.35
2023-04-29T15:52:52.366Z,12.14
2023-04-29T15:54:23.766Z,13.32
2023-04-29T15:56:00.148Z,14.80
2023-04-29T15:57:41.175Z,15.24
2023-04-29T15:59:14.603Z,14.21
2023-04-29T16:00:38.862Z,12.51
2023-04-29T16:02:00.548Z,11.73
2023-04-29T16:03:30.229Z,11.60
2023-04-29T16:05:10.749Z,11.40
2023-04-29T16:06:34.992Z,12.51
2023-04-29T16:07:59.090Z,12.39
2023-04-29T16:09:35.081Z,11.42
2023-04-29T16:11:08.219Z,11.03
2023-04-29T16:12:32.427Z,10.81
2023-04-29T16:13:56.537Z,10.17
2023-04-29T16:15:30.479Z,11.19
2023-04-29T16:17:02.114Z,11.13
2023-04-29T16:18:24.087Z,11.77
2023-04-29T16:19:48.363Z,12.09
2023-04-29T16:21:12.695Z,12.52
2023-04-29T16:22:34.681Z,11.77
2023-04-29T16:23:58.974Z,11.22
2023-04-29T16:25:23.085Z,11.53
2023-04-29T16:26:48.239Z,12.62
2023-04-29T16:28:09.560Z,12.48
2023-04-29T16:29:39.228Z,12.05
2023-04-29T16:31:00.936Z,12.84
2023-04-29T16:32:34.732Z,12.98
2023-04-29T16:33:57.183Z,12.66
2023-04-29T16:35:31.029Z,13.21
2023-04-29T16:37:07.258Z,14.23
2023-04-29T16:38:31.437Z,14.47
2023-04-29T16:39:53.373Z,13.28
2023-04-29T16:41:29.369Z,13.92
2023-04-29T16:42:51.453Z,13.19
2023-04-29T16:44:27.799Z,14.20
2023-04-29T16:45:52.090Z,13.93
2023-04-29T16:47:23.499Z,13.88
2023-04-29T16:48:57.005Z,14.04
2023-04-29T16:50:21.124Z,15.78
2023-04-29T16:52:01.774Z,14.54
2023-04-29T16:53:28.214Z,14.95
2023-04-29T16:55:03.799Z,14.61
2023-04-29T16:56:25.913Z,14.31
2023-04-29T16:58:01.163Z,14.95
2023-04-29T16:59:28.169Z,14.94
2023-04-29T17:01:04.023Z,14.29
2023-04-29T17:02:45.080Z,15.72
2023-04-29T17:04:09.157Z,15.64
2023-04-29T17:05:43.059Z,14.28
2023-04-29T17:07:19.099Z,14.56
2023-04-29T17:08:45.699Z,14.77
2023-04-29T17:10:26.657Z,14.41
2023-04-29T17:12:03.619Z,13.72
2023-04-29T17:13:37.674Z,13.42
2023-04-29T17:14:59.352Z,14.53
2023-04-29T17:16:35.375Z,16.83
2023-04-29T17:17:57.214Z,16.21
2023-04-29T17:19:21.560Z,15.79
2023-04-29T17:20:58.734Z,15.34
2023-04-29T17:22:20.492Z,15.54
2023-04-29T17:23:54.002Z,15.28
2023-04-29T17:25:29.732Z,15.18
2023-04-29T17:26:51.853Z,14.92
2023-04-29T17:28:25.102Z,15.49
2023-04-29T17:29:49.725Z,15.93
2023-04-29T17:31:24.876Z,15.62
2023-04-29T17:33:05.601Z,15.99
2023-04-29T17:34:31.114Z,17.16
2023-04-29T17:36:01.277Z,15.83
2023-04-29T17:37:36.827Z,17.18
2023-04-29T17:39:12.405Z,16.76
2023-04-29T17:40:34.725Z,17.60
2023-04-29T17:42:10.006Z,16.34
2023-04-29T17:43:39.427Z,16.56
2023-04-29T17:45:03.480Z,16.35
2023-04-29T17:46:39.570Z,15.41
2023-04-29T17:48:28.084Z,15.45
2023-04-29T17:50:04.206Z,15.73
2023-04-29T17:51:28.900Z,15.77
2023-04-29T17:52:58.042Z,15.21
2023-04-29T17:54:31.905Z,16.41
2023-04-29T17:55:55.356Z,15.28
2023-04-29T17:57:28.996Z,16.03
2023-04-29T17:59:05.348Z,15.37
2023-04-29T18:00:41.637Z,15.77
2023-04-29T18:02:12.796Z,15.85
2023-04-29T18:03:35.060Z,15.90
2023-04-29T18:04:58.849Z,16.18
2023-04-29T18:06:28.308Z,16.03
2023-04-29T18:07:50.653Z,16.50
2023-04-29T18:09:14.786Z,17.56
2023-04-29T18:10:44.271Z,17.25
2023-04-29T18:12:08.208Z,18.83
2023-04-29T18:13:30.548Z,18.89
2023-04-29T18:14:54.406Z,18.89
2023-04-29T18:16:18.303Z,19.36
2023-04-29T18:17:54.690Z,18.76
2023-04-29T18:19:17.520Z,20.05
2023-04-29T18:20:42.459Z,20.13
2023-04-29T18:22:06.333Z,21.21
2023-04-29T18:23:28.189Z,23.17
2023-04-29T18:24:50.176Z,22.44
2023-04-29T18:26:14.384Z,22.81
2023-04-29T18:27:44.462Z,22.30
2023-04-29T18:29:08.353Z,22.73
2023-04-29T18:30:32.424Z,21.94
2023-04-29T18:31:56.563Z,23.35
2023-04-29T18:33:32.214Z,22.96
2023-04-29T18:34:56.230Z,22.01
2023-04-29T18:36:29.347Z,24.21
2023-04-29T18:37:51.284Z,27.06
2023-04-29T18:39:12.568Z,28.11
2023-04-29T18:40:46.278Z,28.44
2023-04-29T18:42:22.285Z,29.37
2023-04-29T18:43:46.275Z,28.75
2023-04-29T18:45:07.651Z,24.78
2023-04-29T18:46:37.484Z,25.53
2023-04-29T18:48:06.654Z,24.53
2023-04-29T18:49:38.448Z,24.48
2023-04-29T18:51:02.799Z,23.54
2023-04-29T18:52:29.571Z,25.37
2023-04-29T18:53:59.097Z,24.72
2023-04-29T18:55:23.040Z,24.78
2023-04-29T18:56:47.227Z,25.44
2023-04-29T18:58:09.345Z,24.07
2023-04-29T18:59:31.947Z,24.50
2023-04-29T19:00:54.041Z,25.24
2023-04-29T19:02:28.109Z,29.15
2023-04-29T19:03:52.521Z,28.61
2023-04-29T19:05:14.040Z,29.28
2023-04-29T19:06:36.319Z,30.30
2023-04-29T19:08:00.240Z,31.93
2023-04-29T19:09:35.686Z,34.13
2023-04-29T19:11:00.754Z,33.66
2023-04-29T19:12:22.853Z,31.53
2023-04-29T19:13:44.874Z,31.20
2023-04-29T19:15:18.092Z,31.97
2023-04-29T19:16:40.594Z,32.31
2023-04-29T19:18:13.859Z,36.54
2023-04-29T19:19:43.337Z,35.08
2023-04-29T19:21:04.619Z,37.00
2023-04-29T19:22:36.180Z,35.62
2023-04-29T19:24:00.340Z,42.10
2023-04-29T19:25:31.463Z,42.23
2023-04-29T19:26:53.095Z,42.51
2023-04-29T19:28:28.449Z,41.65
2023-04-29T19:29:51.172Z,38.48
2023-04-29T19:31:15.170Z,38.58
2023-04-29T19:32:37.444Z,46.25
2023-04-29T19:33:59.016Z,47.82
2023-04-29T19:35:21.132Z,49.19
2023-04-29T19:36:43.078Z,43.83
2023-04-29T19:38:04.722Z,41.55
2023-04-29T19:39:41.129Z,34.49
2023-04-29T19:41:03.071Z,35.20
2023-04-29T19:42:24.838Z,34.08
2023-04-29T19:43:58.207Z,36.34
2023-04-29T19:45:19.661Z,37.72
2023-04-29T19:46:55.498Z,37.63
2023-04-29T19:48:17.290Z,38.72